sensor_id;sensor_type;location;lat;lon;timestamp;P1;durP1;ratioP1;P2;durP2;ratioP2
10132;SDS011;5106;50.926;7.080;2023-04-24T00:02:03;2.80;;;0.80;;
10132;SDS011;5106;50.926;7.080;2023-04-24T00:04:29;1.23;;;0.60;;
10132;SDS011;5106;50.926;7.080;2023-04-24T00:06:55;0.93;;;0.80;;
10132;SDS011;5106;50.926;7.080;2023-04-24T00:09:22;1.95;;;1.00;;
10132;SDS011;5106;50.926;7.080;2023-04-24T00:11:48;0.90;;;0.80;;
10132;SDS011;5106;50.926;7.080;2023-04-24T00:14:13;1.70;;;0.93;;
10132;SDS011;5106;50.926;7.080;2023-04-24T00:16:39;0.98;;;0.80;;
10132;SDS011;5106;50.926;7.080;2023-04-24T00:19:04;0.90;;;0.85;;
10132;SDS011;5106;50.926;7.080;2023-04-24T00:21:31;0.90;;;0.80;;
10132;SDS011;5106;50.926;7.080;2023-04-24T00:23:57;0.60;;;0.60;;
10132;SDS011;5106;50.926;7.080;2023-04-24T00:26:26;1.50;;;1.02;;
10132;SDS011;5106;50.926;7.080;2023-04-24T00:28:52;0.90;;;0.70;;
10132;SDS011;5106;50.926;7.080;2023-04-24T00:31:17;1.45;;;1.00;;
10132;SDS011;5106;50.926;7.080;2023-04-24T00:33:44;2.47;;;1.00;;
10132;SDS011;5106;50.926;7.080;2023-04-24T00:36:09;3.45;;;0.80;;
10132;SDS011;5106;50.926;7.080;2023-04-24T00:38:35;4.13;;;0.88;;
10132;SDS011;5106;50.926;7.080;2023-04-24T00:41:00;1.00;;;0.88;;
10132;SDS011;5106;50.926;7.080;2023-04-24T00:43:26;0.90;;;0.73;;
10132;SDS011;5106;50.926;7.080;2023-04-24T00:45:52;1.63;;;0.93;;
10132;SDS011;5106;50.926;7.080;2023-04-24T00:48:17;0.82;;;0.80;;
10132;SDS011;5106;50.926;7.080;2023-04-24T00:50:43;1.08;;;0.90;;
10132;SDS011;5106;50.926;7.080;2023-04-24T00:53:10;2.05;;;0.90;;
10132;SDS011;5106;50.926;7.080;2023-04-24T00:55:35;1.90;;;0.90;;
10132;SDS011;5106;50.926;7.080;2023-04-24T00:58:02;1.00;;;0.90;;
10132;SDS011;5106;50.926;7.080;2023-04-24T01:00:28;1.48;;;0.93;;
10132;SDS011;5106;50.926;7.080;2023-04-24T01:02:54;1.58;;;0.80;;
10132;SDS011;5106;50.926;7.080;2023-04-24T01:05:20;1.90;;;1.02;;
10132;SDS011;5106;50.926;7.080;2023-04-24T01:07:46;2.25;;;1.00;;
10132;SDS011;5106;50.926;7.080;2023-04-24T01:10:14;2.00;;;1.10;;
10132;SDS011;5106;50.926;7.080;2023-04-24T01:12:40;1.27;;;0.90;;
10132;SDS011;5106;50.926;7.080;2023-04-24T01:15:06;1.25;;;1.00;;
10132;SDS011;5106;50.926;7.080;2023-04-24T01:17:33;1.45;;;1.00;;
10132;SDS011;5106;50.926;7.080;2023-04-24T01:19:59;1.08;;;0.95;;
10132;SDS011;5106;50.926;7.080;2023-04-24T01:22:26;1.45;;;1.13;;
10132;SDS011;5106;50.926;7.080;2023-04-24T01:24:52;1.50;;;1.20;;
10132;SDS011;5106;50.926;7.080;2023-04-24T01:27:18;2.05;;;1.10;;
10132;SDS011;5106;50.926;7.080;2023-04-24T01:29:45;1.23;;;1.00;;
10132;SDS011;5106;50.926;7.080;2023-04-24T01:32:12;1.30;;;1.00;;
10132;SDS011;5106;50.926;7.080;2023-04-24T01:34:38;1.50;;;1.08;;
10132;SDS011;5106;50.926;7.080;2023-04-24T01:37:04;1.92;;;1.20;;
10132;SDS011;5106;50.926;7.080;2023-04-24T01:39:30;2.50;;;1.02;;
10132;SDS011;5106;50.926;7.080;2023-04-24T01:41:56;1.13;;;1.02;;
10132;SDS011;5106;50.926;7.080;2023-04-24T01:44:22;1.60;;;1.15;;
10132;SDS011;5106;50.926;7.080;2023-04-24T01:46:48;1.10;;;1.00;;
10132;SDS011;5106;50.926;7.080;2023-04-24T01:49:18;3.03;;;1.10;;
10132;SDS011;5106;50.926;7.080;2023-04-24T01:51:43;1.30;;;1.20;;
10132;SDS011;5106;50.926;7.080;2023-04-24T01:54:18;2.00;;;1.10;;
10132;SDS011;5106;50.926;7.080;2023-04-24T01:56:44;2.25;;;1.38;;
10132;SDS011;5106;50.926;7.080;2023-04-24T01:59:11;3.03;;;1.42;;
10132;SDS011;5106;50.926;7.080;2023-04-24T02:01:40;2.17;;;1.50;;
10132;SDS011;5106;50.926;7.080;2023-04-24T02:04:06;2.45;;;1.40;;
10132;SDS011;5106;50.926;7.080;2023-04-24T02:06:32;2.28;;;1.50;;
10132;SDS011;5106;50.926;7.080;2023-04-24T02:08:58;1.95;;;1.55;;
10132;SDS011;5106;50.926;7.080;2023-04-24T02:11:24;2.17;;;1.67;;
10132;SDS011;5106;50.926;7.080;2023-04-24T02:13:50;2.22;;;1.48;;
10132;SDS011;5106;50.926;7.080;2023-04-24T02:16:16;2.63;;;1.70;;
10132;SDS011;5106;50.926;7.080;2023-04-24T02:18:42;3.00;;;2.15;;
10132;SDS011;5106;50.926;7.080;2023-04-24T02:21:08;3.25;;;2.40;;
10132;SDS011;5106;50.926;7.080;2023-04-24T02:23:34;3.53;;;2.60;;
10132;SDS011;5106;50.926;7.080;2023-04-24T02:25:59;2.72;;;2.47;;
10132;SDS011;5106;50.926;7.080;2023-04-24T02:28:25;3.53;;;2.40;;
10132;SDS011;5106;50.926;7.080;2023-04-24T02:30:51;3.20;;;2.85;;
10132;SDS011;5106;50.926;7.080;2023-04-24T02:33:16;2.83;;;2.35;;
10132;SDS011;5106;50.926;7.080;2023-04-24T02:35:42;3.45;;;2.60;;
10132;SDS011;5106;50.926;7.080;2023-04-24T02:38:07;4.28;;;2.72;;
10132;SDS011;5106;50.926;7.080;2023-04-24T02:40:33;5.03;;;3.20;;
10132;SDS011;5106;50.926;7.080;2023-04-24T02:42:58;2.83;;;2.50;;
10132;SDS011;5106;50.926;7.080;2023-04-24T02:45:24;4.18;;;3.10;;
10132;SDS011;5106;50.926;7.080;2023-04-24T02:47:50;4.63;;;3.55;;
10132;SDS011;5106;50.926;7.080;2023-04-24T02:50:15;3.72;;;3.17;;
10132;SDS011;5106;50.926;7.080;2023-04-24T02:52:41;3.13;;;2.83;;
10132;SDS011;5106;50.926;7.080;2023-04-24T02:55:07;4.18;;;3.10;;
10132;SDS011;5106;50.926;7.080;2023-04-24T02:57:33;4.25;;;3.70;;
10132;SDS011;5106;50.926;7.080;2023-04-24T02:59:59;5.82;;;4.13;;
10132;SDS011;5106;50.926;7.080;2023-04-24T03:02:25;4.30;;;3.90;;
10132;SDS011;5106;50.926;7.080;2023-04-24T03:04:50;5.25;;;3.63;;
10132;SDS011;5106;50.926;7.080;2023-04-24T03:07:16;5.18;;;3.83;;
10132;SDS011;5106;50.926;7.080;2023-04-24T03:09:42;4.53;;;3.92;;
10132;SDS011;5106;50.926;7.080;2023-04-24T03:12:07;5.75;;;3.88;;
10132;SDS011;5106;50.926;7.080;2023-04-24T03:14:33;3.50;;;3.20;;
10132;SDS011;5106;50.926;7.080;2023-04-24T03:16:59;4.72;;;3.55;;
10132;SDS011;5106;50.926;7.080;2023-04-24T03:19:25;4.80;;;3.72;;
10132;SDS011;5106;50.926;7.080;2023-04-24T03:21:51;4.50;;;3.67;;
10132;SDS011;5106;50.926;7.080;2023-04-24T03:24:17;5.70;;;4.43;;
10132;SDS011;5106;50.926;7.080;2023-04-24T03:26:42;4.65;;;4.07;;
10132;SDS011;5106;50.926;7.080;2023-04-24T03:29:08;5.30;;;3.88;;
10132;SDS011;5106;50.926;7.080;2023-04-24T03:31:33;4.20;;;3.53;;
10132;SDS011;5106;50.926;7.080;2023-04-24T03:33:59;4.07;;;3.67;;
10132;SDS011;5106;50.926;7.080;2023-04-24T03:36:25;7.97;;;4.18;;
10132;SDS011;5106;50.926;7.080;2023-04-24T03:38:51;5.82;;;4.30;;
10132;SDS011;5106;50.926;7.080;2023-04-24T03:41:17;4.78;;;4.07;;
10132;SDS011;5106;50.926;7.080;2023-04-24T03:43:42;4.78;;;3.83;;
10132;SDS011;5106;50.926;7.080;2023-04-24T03:46:08;5.45;;;3.60;;
10132;SDS011;5106;50.926;7.080;2023-04-24T03:48:34;4.78;;;3.83;;
10132;SDS011;5106;50.926;7.080;2023-04-24T03:51:00;3.80;;;3.50;;
10132;SDS011;5106;50.926;7.080;2023-04-24T03:53:25;5.28;;;4.50;;
10132;SDS011;5106;50.926;7.080;2023-04-24T03:55:52;4.18;;;3.72;;
10132;SDS011;5106;50.926;7.080;2023-04-24T03:58:18;4.32;;;3.80;;
10132;SDS011;5106;50.926;7.080;2023-04-24T04:00:43;6.20;;;4.03;;
10132;SDS011;5106;50.926;7.080;2023-04-24T04:03:09;7.60;;;4.15;;
10132;SDS011;5106;50.926;7.080;2023-04-24T04:05:35;4.55;;;4.15;;
10132;SDS011;5106;50.926;7.080;2023-04-24T04:08:00;4.43;;;3.58;;
10132;SDS011;5106;50.926;7.080;2023-04-24T04:10:27;4.28;;;3.80;;
10132;SDS011;5106;50.926;7.080;2023-04-24T04:12:52;4.78;;;3.90;;
10132;SDS011;5106;50.926;7.080;2023-04-24T04:15:18;4.03;;;3.60;;
10132;SDS011;5106;50.926;7.080;2023-04-24T04:17:43;6.03;;;3.33;;
10132;SDS011;5106;50.926;7.080;2023-04-24T04:20:10;4.93;;;3.60;;
10132;SDS011;5106;50.926;7.080;2023-04-24T04:22:36;5.38;;;3.47;;
10132;SDS011;5106;50.926;7.080;2023-04-24T04:25:02;4.47;;;3.72;;
10132;SDS011;5106;50.926;7.080;2023-04-24T04:27:29;6.10;;;3.53;;
10132;SDS011;5106;50.926;7.080;2023-04-24T04:30:00;4.15;;;3.70;;
10132;SDS011;5106;50.926;7.080;2023-04-24T04:32:29;7.15;;;3.92;;
10132;SDS011;5106;50.926;7.080;2023-04-24T04:34:58;3.83;;;3.30;;
10132;SDS011;5106;50.926;7.080;2023-04-24T04:37:28;3.95;;;3.55;;
10132;SDS011;5106;50.926;7.080;2023-04-24T04:39:54;8.27;;;3.92;;
10132;SDS011;5106;50.926;7.080;2023-04-24T04:42:20;9.05;;;3.88;;
10132;SDS011;5106;50.926;7.080;2023-04-24T04:44:46;4.15;;;3.60;;
10132;SDS011;5106;50.926;7.080;2023-04-24T04:47:11;4.60;;;3.88;;
10132;SDS011;5106;50.926;7.080;2023-04-24T04:49:37;4.05;;;3.47;;
10132;SDS011;5106;50.926;7.080;2023-04-24T04:52:03;5.63;;;3.53;;
10132;SDS011;5106;50.926;7.080;2023-04-24T04:54:30;5.93;;;3.75;;
10132;SDS011;5106;50.926;7.080;2023-04-24T04:56:55;5.88;;;3.92;;
10132;SDS011;5106;50.926;7.080;2023-04-24T04:59:22;4.22;;;3.47;;
10132;SDS011;5106;50.926;7.080;2023-04-24T05:01:48;5.55;;;3.58;;
10132;SDS011;5106;50.926;7.080;2023-04-24T05:04:14;5.07;;;3.67;;
10132;SDS011;5106;50.926;7.080;2023-04-24T05:06:40;4.20;;;3.80;;
10132;SDS011;5106;50.926;7.080;2023-04-24T05:09:05;4.15;;;3.53;;
10132;SDS011;5106;50.926;7.080;2023-04-24T05:11:32;7.93;;;4.10;;
10132;SDS011;5106;50.926;7.080;2023-04-24T05:13:58;5.05;;;3.78;;
10132;SDS011;5106;50.926;7.080;2023-04-24T05:16:23;3.75;;;3.45;;
10132;SDS011;5106;50.926;7.080;2023-04-24T05:18:49;9.93;;;3.78;;
10132;SDS011;5106;50.926;7.080;2023-04-24T05:21:14;7.93;;;3.63;;
10132;SDS011;5106;50.926;7.080;2023-04-24T05:23:40;4.35;;;3.65;;
10132;SDS011;5106;50.926;7.080;2023-04-24T05:26:06;4.38;;;3.90;;
10132;SDS011;5106;50.926;7.080;2023-04-24T05:28:31;4.20;;;3.80;;
10132;SDS011;5106;50.926;7.080;2023-04-24T05:30:57;3.90;;;3.50;;
10132;SDS011;5106;50.926;7.080;2023-04-24T05:33:24;5.43;;;3.45;;
10132;SDS011;5106;50.926;7.080;2023-04-24T05:35:50;4.68;;;3.80;;
10132;SDS011;5106;50.926;7.080;2023-04-24T05:38:15;4.75;;;3.30;;
10132;SDS011;5106;50.926;7.080;2023-04-24T05:40:45;6.90;;;3.80;;
10132;SDS011;5106;50.926;7.080;2023-04-24T05:43:11;6.28;;;3.75;;
10132;SDS011;5106;50.926;7.080;2023-04-24T05:45:37;6.00;;;3.83;;
10132;SDS011;5106;50.926;7.080;2023-04-24T05:48:03;6.10;;;4.18;;
10132;SDS011;5106;50.926;7.080;2023-04-24T05:50:29;5.55;;;3.90;;
10132;SDS011;5106;50.926;7.080;2023-04-24T05:52:55;7.07;;;4.13;;
10132;SDS011;5106;50.926;7.080;2023-04-24T05:55:23;6.60;;;4.00;;
10132;SDS011;5106;50.926;7.080;2023-04-24T05:57:49;5.88;;;4.05;;
10132;SDS011;5106;50.926;7.080;2023-04-24T06:00:15;6.68;;;4.00;;
10132;SDS011;5106;50.926;7.080;2023-04-24T06:02:40;5.43;;;4.07;;
10132;SDS011;5106;50.926;7.080;2023-04-24T06:05:06;6.13;;;4.07;;
10132;SDS011;5106;50.926;7.080;2023-04-24T06:07:33;4.40;;;4.00;;
10132;SDS011;5106;50.926;7.080;2023-04-24T06:09:59;4.85;;;4.03;;
10132;SDS011;5106;50.926;7.080;2023-04-24T06:12:25;5.97;;;4.05;;
10132;SDS011;5106;50.926;7.080;2023-04-24T06:14:50;4.97;;;4.03;;
10132;SDS011;5106;50.926;7.080;2023-04-24T06:17:16;9.80;;;4.13;;
10132;SDS011;5106;50.926;7.080;2023-04-24T06:19:42;5.70;;;4.22;;
10132;SDS011;5106;50.926;7.080;2023-04-24T06:22:08;6.40;;;4.45;;
10132;SDS011;5106;50.926;7.080;2023-04-24T06:24:34;6.00;;;4.47;;
10132;SDS011;5106;50.926;7.080;2023-04-24T06:26:59;6.28;;;4.40;;
10132;SDS011;5106;50.926;7.080;2023-04-24T06:29:26;6.55;;;4.50;;
10132;SDS011;5106;50.926;7.080;2023-04-24T06:31:52;6.15;;;4.60;;
10132;SDS011;5106;50.926;7.080;2023-04-24T06:34:17;4.60;;;3.60;;
10132;SDS011;5106;50.926;7.080;2023-04-24T06:36:43;4.25;;;3.08;;
10132;SDS011;5106;50.926;7.080;2023-04-24T06:39:09;4.15;;;3.20;;
10132;SDS011;5106;50.926;7.080;2023-04-24T06:41:34;4.13;;;3.20;;
10132;SDS011;5106;50.926;7.080;2023-04-24T06:44:00;4.93;;;3.20;;
10132;SDS011;5106;50.926;7.080;2023-04-24T06:46:26;5.13;;;4.32;;
10132;SDS011;5106;50.926;7.080;2023-04-24T06:48:53;5.23;;;3.57;;
10132;SDS011;5106;50.926;7.080;2023-04-24T06:51:25;3.00;;;2.28;;
10132;SDS011;5106;50.926;7.080;2023-04-24T06:53:52;2.10;;;1.90;;
10132;SDS011;5106;50.926;7.080;2023-04-24T06:56:18;2.17;;;1.90;;
10132;SDS011;5106;50.926;7.080;2023-04-24T06:58:45;3.00;;;2.13;;
10132;SDS011;5106;50.926;7.080;2023-04-24T07:01:11;2.87;;;2.27;;
10132;SDS011;5106;50.926;7.080;2023-04-24T07:03:37;3.50;;;2.20;;
10132;SDS011;5106;50.926;7.080;2023-04-24T07:06:02;2.57;;;2.20;;
10132;SDS011;5106;50.926;7.080;2023-04-24T07:08:29;3.73;;;2.47;;
10132;SDS011;5106;50.926;7.080;2023-04-24T07:11:01;3.30;;;2.40;;
10132;SDS011;5106;50.926;7.080;2023-04-24T07:13:27;3.47;;;2.30;;
10132;SDS011;5106;50.926;7.080;2023-04-24T07:15:54;2.83;;;2.03;;
10132;SDS011;5106;50.926;7.080;2023-04-24T07:18:21;2.20;;;1.87;;
10132;SDS011;5106;50.926;7.080;2023-04-24T07:20:47;2.20;;;1.80;;
10132;SDS011;5106;50.926;7.080;2023-04-24T07:23:15;2.53;;;1.70;;
10132;SDS011;5106;50.926;7.080;2023-04-24T07:25:40;1.73;;;1.63;;
10132;SDS011;5106;50.926;7.080;2023-04-24T07:28:06;1.83;;;1.60;;
10132;SDS011;5106;50.926;7.080;2023-04-24T07:30:31;2.10;;;1.70;;
10132;SDS011;5106;50.926;7.080;2023-04-24T07:32:58;2.70;;;1.60;;
10132;SDS011;5106;50.926;7.080;2023-04-24T07:35:24;4.93;;;1.70;;
10132;SDS011;5106;50.926;7.080;2023-04-24T07:37:51;2.70;;;1.77;;
10132;SDS011;5106;50.926;7.080;2023-04-24T07:40:18;3.40;;;1.90;;
10132;SDS011;5106;50.926;7.080;2023-04-24T07:42:43;1.90;;;1.70;;
10132;SDS011;5106;50.926;7.080;2023-04-24T07:45:09;1.83;;;1.63;;
10132;SDS011;5106;50.926;7.080;2023-04-24T07:47:35;1.50;;;1.40;;
10132;SDS011;5106;50.926;7.080;2023-04-24T07:50:02;1.87;;;1.50;;
10132;SDS011;5106;50.926;7.080;2023-04-24T07:52:28;4.27;;;1.60;;
10132;SDS011;5106;50.926;7.080;2023-04-24T07:54:54;1.80;;;1.30;;
10132;SDS011;5106;50.926;7.080;2023-04-24T07:57:24;1.73;;;1.20;;
10132;SDS011;5106;50.926;7.080;2023-04-24T07:59:50;1.73;;;1.20;;
10132;SDS011;5106;50.926;7.080;2023-04-24T08:02:15;1.97;;;1.17;;
10132;SDS011;5106;50.926;7.080;2023-04-24T08:04:41;1.50;;;1.20;;
10132;SDS011;5106;50.926;7.080;2023-04-24T08:07:07;1.90;;;1.10;;
10132;SDS011;5106;50.926;7.080;2023-04-24T08:09:33;2.47;;;1.20;;
10132;SDS011;5106;50.926;7.080;2023-04-24T08:11:58;1.50;;;1.07;;
10132;SDS011;5106;50.926;7.080;2023-04-24T08:14:24;1.77;;;1.10;;
10132;SDS011;5106;50.926;7.080;2023-04-24T08:16:50;1.60;;;1.27;;
10132;SDS011;5106;50.926;7.080;2023-04-24T08:19:17;4.63;;;1.30;;
10132;SDS011;5106;50.926;7.080;2023-04-24T08:21:42;1.83;;;1.37;;
10132;SDS011;5106;50.926;7.080;2023-04-24T08:24:08;2.13;;;1.73;;
10132;SDS011;5106;50.926;7.080;2023-04-24T08:26:34;1.50;;;1.40;;
10132;SDS011;5106;50.926;7.080;2023-04-24T08:28:59;2.30;;;1.40;;
10132;SDS011;5106;50.926;7.080;2023-04-24T08:31:25;1.70;;;1.50;;
10132;SDS011;5106;50.926;7.080;2023-04-24T08:33:52;2.87;;;1.80;;
10132;SDS011;5106;50.926;7.080;2023-04-24T08:36:17;1.77;;;1.43;;
10132;SDS011;5106;50.926;7.080;2023-04-24T08:38:43;3.27;;;1.40;;
10132;SDS011;5106;50.926;7.080;2023-04-24T08:41:08;3.07;;;1.37;;
10132;SDS011;5106;50.926;7.080;2023-04-24T08:43:34;1.37;;;1.13;;
10132;SDS011;5106;50.926;7.080;2023-04-24T08:46:03;2.57;;;0.90;;
10132;SDS011;5106;50.926;7.080;2023-04-24T08:48:29;3.30;;;1.10;;
10132;SDS011;5106;50.926;7.080;2023-04-24T08:50:56;0.97;;;0.87;;
10132;SDS011;5106;50.926;7.080;2023-04-24T08:53:22;1.40;;;1.07;;
10132;SDS011;5106;50.926;7.080;2023-04-24T08:55:50;1.83;;;1.20;;
10132;SDS011;5106;50.926;7.080;2023-04-24T08:58:16;1.47;;;1.10;;
10132;SDS011;5106;50.926;7.080;2023-04-24T09:00:43;1.67;;;1.20;;
10132;SDS011;5106;50.926;7.080;2023-04-24T09:03:12;2.53;;;1.40;;
10132;SDS011;5106;50.926;7.080;2023-04-24T09:05:40;2.20;;;1.70;;
10132;SDS011;5106;50.926;7.080;2023-04-24T09:08:10;3.30;;;1.70;;
10132;SDS011;5106;50.926;7.080;2023-04-24T09:10:38;2.57;;;2.00;;
10132;SDS011;5106;50.926;7.080;2023-04-24T09:13:04;2.70;;;2.10;;
10132;SDS011;5106;50.926;7.080;2023-04-24T09:15:30;2.70;;;2.23;;
10132;SDS011;5106;50.926;7.080;2023-04-24T09:17:56;5.40;;;2.47;;
10132;SDS011;5106;50.926;7.080;2023-04-24T09:20:22;2.83;;;2.40;;
10132;SDS011;5106;50.926;7.080;2023-04-24T09:22:48;4.30;;;2.63;;
10132;SDS011;5106;50.926;7.080;2023-04-24T09:25:18;4.17;;;2.63;;
10132;SDS011;5106;50.926;7.080;2023-04-24T09:27:44;6.93;;;3.07;;
10132;SDS011;5106;50.926;7.080;2023-04-24T09:30:10;3.77;;;2.67;;
10132;SDS011;5106;50.926;7.080;2023-04-24T09:32:36;4.50;;;3.00;;
10132;SDS011;5106;50.926;7.080;2023-04-24T09:35:09;4.57;;;3.30;;
10132;SDS011;5106;50.926;7.080;2023-04-24T09:37:37;3.87;;;3.13;;
10132;SDS011;5106;50.926;7.080;2023-04-24T09:40:10;5.97;;;4.20;;
10132;SDS011;5106;50.926;7.080;2023-04-24T09:42:43;4.90;;;3.40;;
10132;SDS011;5106;50.926;7.080;2023-04-24T09:45:16;5.73;;;4.07;;
10132;SDS011;5106;50.926;7.080;2023-04-24T09:47:42;9.10;;;4.67;;
10132;SDS011;5106;50.926;7.080;2023-04-24T09:50:09;5.53;;;4.33;;
10132;SDS011;5106;50.926;7.080;2023-04-24T09:52:39;7.73;;;5.00;;
10132;SDS011;5106;50.926;7.080;2023-04-24T09:55:19;7.50;;;5.13;;
10132;SDS011;5106;50.926;7.080;2023-04-24T09:57:49;7.13;;;5.30;;
10132;SDS011;5106;50.926;7.080;2023-04-24T10:00:31;6.47;;;5.20;;
10132;SDS011;5106;50.926;7.080;2023-04-24T10:02:58;8.00;;;5.13;;
10132;SDS011;5106;50.926;7.080;2023-04-24T10:05:29;8.20;;;5.50;;
10132;SDS011;5106;50.926;7.080;2023-04-24T10:10:28;7.50;;;5.33;;
10132;SDS011;5106;50.926;7.080;2023-04-24T10:12:54;8.53;;;6.17;;
10132;SDS011;5106;50.926;7.080;2023-04-24T10:15:20;10.47;;;6.70;;
10132;SDS011;5106;50.926;7.080;2023-04-24T10:17:47;8.30;;;5.90;;
10132;SDS011;5106;50.926;7.080;2023-04-24T10:20:18;8.53;;;5.90;;
10132;SDS011;5106;50.926;7.080;2023-04-24T10:22:46;8.77;;;5.70;;
10132;SDS011;5106;50.926;7.080;2023-04-24T10:25:15;8.70;;;5.43;;
10132;SDS011;5106;50.926;7.080;2023-04-24T10:27:42;6.63;;;4.83;;
10132;SDS011;5106;50.926;7.080;2023-04-24T10:30:10;8.43;;;4.57;;
10132;SDS011;5106;50.926;7.080;2023-04-24T10:32:37;6.10;;;4.30;;
10132;SDS011;5106;50.926;7.080;2023-04-24T10:35:03;9.37;;;4.87;;
10132;SDS011;5106;50.926;7.080;2023-04-24T10:37:34;6.87;;;4.80;;
10132;SDS011;5106;50.926;7.080;2023-04-24T10:40:16;10.97;;;5.20;;
10132;SDS011;5106;50.926;7.080;2023-04-24T10:42:43;8.13;;;4.60;;
10132;SDS011;5106;50.926;7.080;2023-04-24T10:45:16;6.60;;;4.00;;
10132;SDS011;5106;50.926;7.080;2023-04-24T10:47:59;5.43;;;4.17;;
10132;SDS011;5106;50.926;7.080;2023-04-24T10:50:28;7.47;;;4.33;;
10132;SDS011;5106;50.926;7.080;2023-04-24T10:53:04;7.07;;;3.80;;
10132;SDS011;5106;50.926;7.080;2023-04-24T10:55:41;6.97;;;3.60;;
10132;SDS011;5106;50.926;7.080;2023-04-24T10:58:09;7.30;;;3.47;;
10132;SDS011;5106;50.926;7.080;2023-04-24T11:00:39;8.43;;;4.03;;
10132;SDS011;5106;50.926;7.080;2023-04-24T11:03:06;7.37;;;3.90;;
10132;SDS011;5106;50.926;7.080;2023-04-24T11:08:43;7.17;;;3.60;;
10132;SDS011;5106;50.926;7.080;2023-04-24T11:11:10;6.97;;;3.80;;
10132;SDS011;5106;50.926;7.080;2023-04-24T11:21:32;5.23;;;3.60;;
10132;SDS011;5106;50.926;7.080;2023-04-24T11:26:48;5.13;;;3.37;;
10132;SDS011;5106;50.926;7.080;2023-04-24T11:29:16;11.20;;;4.40;;
10132;SDS011;5106;50.926;7.080;2023-04-24T11:31:45;5.32;;;3.20;;
10132;SDS011;5106;50.926;7.080;2023-04-24T11:34:16;7.20;;;3.47;;
10132;SDS011;5106;50.926;7.080;2023-04-24T11:36:43;6.20;;;3.73;;
10132;SDS011;5106;50.926;7.080;2023-04-24T11:39:10;8.47;;;4.27;;
10132;SDS011;5106;50.926;7.080;2023-04-24T11:41:37;9.73;;;3.77;;
10132;SDS011;5106;50.926;7.080;2023-04-24T11:44:03;9.57;;;4.00;;
10132;SDS011;5106;50.926;7.080;2023-04-24T11:46:32;7.03;;;3.97;;
10132;SDS011;5106;50.926;7.080;2023-04-24T11:48:58;7.45;;;4.70;;
10132;SDS011;5106;50.926;7.080;2023-04-24T11:51:25;7.43;;;4.27;;
10132;SDS011;5106;50.926;7.080;2023-04-24T11:53:52;9.53;;;4.63;;
10132;SDS011;5106;50.926;7.080;2023-04-24T11:56:22;8.85;;;5.25;;
10132;SDS011;5106;50.926;7.080;2023-04-24T11:58:48;7.30;;;5.22;;
10132;SDS011;5106;50.926;7.080;2023-04-24T12:01:14;12.18;;;6.13;;
10132;SDS011;5106;50.926;7.080;2023-04-24T12:03:40;9.70;;;5.60;;
10132;SDS011;5106;50.926;7.080;2023-04-24T12:06:09;9.88;;;5.65;;
10132;SDS011;5106;50.926;7.080;2023-04-24T12:08:36;8.68;;;5.20;;
10132;SDS011;5106;50.926;7.080;2023-04-24T12:11:03;9.52;;;4.95;;
10132;SDS011;5106;50.926;7.080;2023-04-24T12:13:32;5.55;;;3.90;;
10132;SDS011;5106;50.926;7.080;2023-04-24T12:15:58;9.60;;;4.65;;
10132;SDS011;5106;50.926;7.080;2023-04-24T12:18:24;9.52;;;4.50;;
10132;SDS011;5106;50.926;7.080;2023-04-24T12:20:51;11.23;;;4.53;;
10132;SDS011;5106;50.926;7.080;2023-04-24T12:23:32;10.95;;;4.18;;
10132;SDS011;5106;50.926;7.080;2023-04-24T12:26:00;7.25;;;4.10;;
10132;SDS011;5106;50.926;7.080;2023-04-24T12:28:34;5.00;;;3.83;;
10132;SDS011;5106;50.926;7.080;2023-04-24T12:31:03;4.97;;;4.28;;
10132;SDS011;5106;50.926;7.080;2023-04-24T12:33:32;7.22;;;4.50;;
10132;SDS011;5106;50.926;7.080;2023-04-24T12:35:59;7.35;;;4.68;;
10132;SDS011;5106;50.926;7.080;2023-04-24T12:38:25;8.23;;;4.55;;
10132;SDS011;5106;50.926;7.080;2023-04-24T12:41:05;8.43;;;4.32;;
10132;SDS011;5106;50.926;7.080;2023-04-24T12:43:32;11.05;;;5.00;;
10132;SDS011;5106;50.926;7.080;2023-04-24T12:45:58;7.90;;;4.80;;
10132;SDS011;5106;50.926;7.080;2023-04-24T12:48:25;7.30;;;4.28;;
10132;SDS011;5106;50.926;7.080;2023-04-24T12:50:51;12.65;;;5.35;;
10132;SDS011;5106;50.926;7.080;2023-04-24T12:53:16;10.73;;;5.20;;
10132;SDS011;5106;50.926;7.080;2023-04-24T12:55:42;7.65;;;4.57;;
10132;SDS011;5106;50.926;7.080;2023-04-24T12:58:09;10.32;;;4.80;;
10132;SDS011;5106;50.926;7.080;2023-04-24T13:00:35;12.02;;;4.55;;
10132;SDS011;5106;50.926;7.080;2023-04-24T13:03:01;10.75;;;4.88;;
10132;SDS011;5106;50.926;7.080;2023-04-24T13:05:30;12.32;;;4.53;;
10132;SDS011;5106;50.926;7.080;2023-04-24T13:07:56;7.82;;;4.13;;
10132;SDS011;5106;50.926;7.080;2023-04-24T13:10:22;10.65;;;4.60;;
10132;SDS011;5106;50.926;7.080;2023-04-24T13:12:48;9.18;;;3.80;;
10132;SDS011;5106;50.926;7.080;2023-04-24T13:15:16;9.57;;;4.40;;
10132;SDS011;5106;50.926;7.080;2023-04-24T13:17:41;10.18;;;4.05;;
10132;SDS011;5106;50.926;7.080;2023-04-24T13:20:07;7.53;;;3.95;;
10132;SDS011;5106;50.926;7.080;2023-04-24T13:22:33;8.15;;;4.32;;
10132;SDS011;5106;50.926;7.080;2023-04-24T13:24:58;10.05;;;4.50;;
10132;SDS011;5106;50.926;7.080;2023-04-24T13:27:24;8.57;;;3.80;;
10132;SDS011;5106;50.926;7.080;2023-04-24T13:29:50;8.68;;;3.80;;
10132;SDS011;5106;50.926;7.080;2023-04-24T13:32:16;8.40;;;4.13;;
10132;SDS011;5106;50.926;7.080;2023-04-24T13:34:42;6.70;;;3.67;;
10132;SDS011;5106;50.926;7.080;2023-04-24T13:37:08;9.77;;;4.60;;
10132;SDS011;5106;50.926;7.080;2023-04-24T13:39:33;7.18;;;4.70;;
10132;SDS011;5106;50.926;7.080;2023-04-24T13:42:00;10.10;;;4.50;;
10132;SDS011;5106;50.926;7.080;2023-04-24T13:44:25;8.45;;;4.28;;
10132;SDS011;5106;50.926;7.080;2023-04-24T13:46:52;10.10;;;4.18;;
10132;SDS011;5106;50.926;7.080;2023-04-24T13:49:21;6.32;;;3.83;;
10132;SDS011;5106;50.926;7.080;2023-04-24T13:51:49;7.75;;;4.15;;
10132;SDS011;5106;50.926;7.080;2023-04-24T13:54:15;8.23;;;3.95;;
10132;SDS011;5106;50.926;7.080;2023-04-24T13:56:41;6.13;;;3.47;;
10132;SDS011;5106;50.926;7.080;2023-04-24T13:59:07;6.50;;;3.42;;
10132;SDS011;5106;50.926;7.080;2023-04-24T14:01:33;6.93;;;3.40;;
10132;SDS011;5106;50.926;7.080;2023-04-24T14:03:59;8.02;;;3.97;;
10132;SDS011;5106;50.926;7.080;2023-04-24T14:06:24;7.07;;;3.50;;
10132;SDS011;5106;50.926;7.080;2023-04-24T14:08:50;6.93;;;3.80;;
10132;SDS011;5106;50.926;7.080;2023-04-24T14:11:17;6.60;;;4.13;;
10132;SDS011;5106;50.926;7.080;2023-04-24T14:13:43;7.40;;;4.00;;
10132;SDS011;5106;50.926;7.080;2023-04-24T14:16:09;6.97;;;3.75;;
10132;SDS011;5106;50.926;7.080;2023-04-24T14:18:35;8.57;;;4.00;;
10132;SDS011;5106;50.926;7.080;2023-04-24T14:21:01;9.88;;;4.10;;
10132;SDS011;5106;50.926;7.080;2023-04-24T14:23:28;6.10;;;3.55;;
10132;SDS011;5106;50.926;7.080;2023-04-24T14:25:53;4.75;;;3.20;;
10132;SDS011;5106;50.926;7.080;2023-04-24T14:28:19;5.68;;;3.60;;
10132;SDS011;5106;50.926;7.080;2023-04-24T14:30:46;5.40;;;3.03;;
10132;SDS011;5106;50.926;7.080;2023-04-24T14:33:12;7.28;;;3.30;;
10132;SDS011;5106;50.926;7.080;2023-04-24T14:35:38;5.88;;;3.90;;
10132;SDS011;5106;50.926;7.080;2023-04-24T14:38:05;5.20;;;3.40;;
10132;SDS011;5106;50.926;7.080;2023-04-24T14:40:31;5.32;;;2.97;;
10132;SDS011;5106;50.926;7.080;2023-04-24T14:42:57;7.35;;;3.53;;
10132;SDS011;5106;50.926;7.080;2023-04-24T14:45:23;7.22;;;3.92;;
10132;SDS011;5106;50.926;7.080;2023-04-24T14:47:49;4.55;;;3.50;;
10132;SDS011;5106;50.926;7.080;2023-04-24T14:50:15;7.35;;;3.60;;
10132;SDS011;5106;50.926;7.080;2023-04-24T14:52:40;4.95;;;3.30;;
10132;SDS011;5106;50.926;7.080;2023-04-24T14:55:06;7.30;;;3.80;;
10132;SDS011;5106;50.926;7.080;2023-04-24T14:57:32;8.48;;;4.45;;
10132;SDS011;5106;50.926;7.080;2023-04-24T14:59:58;4.65;;;3.50;;
10132;SDS011;5106;50.926;7.080;2023-04-24T15:02:24;5.80;;;3.50;;
10132;SDS011;5106;50.926;7.080;2023-04-24T15:04:50;6.47;;;3.30;;
10132;SDS011;5106;50.926;7.080;2023-04-24T15:07:15;5.03;;;3.42;;
10132;SDS011;5106;50.926;7.080;2023-04-24T15:09:41;5.40;;;3.38;;
10132;SDS011;5106;50.926;7.080;2023-04-24T15:12:07;6.57;;;3.40;;
10132;SDS011;5106;50.926;7.080;2023-04-24T15:14:33;5.18;;;3.33;;